Terminal Aerodrome Forecast
Issued by NWS

Home | Current Version | Previous Version | Text Only | Print | Product List | Glossary On
Versions: 1 2 3 4 5 6 7 8 9 10 11 12 13 14 15
000
FTUS43 KAPX 250500
TAFMBL
TAF
KMBL 250528Z 2506/2606 13008KT P6SM -RA SCT025 OVC050 WS015/15035KT
     FM251500 21006KT P6SM BKN025
     FM251900 30009KT P6SM SCT040
     FM260000 28005KT 5SM -SHRA OVC025
      AMD LTD TO CLD VIS AND WIND=

USA.gov is the U.S. government's official web portal to all federal, state and local government web resources and services.